createdAt,value
2023-05-01T00:01:13.408Z,7.85
2023-05-01T00:04:15.364Z,6.15
2023-05-01T00:07:17.466Z,6.13
2023-05-01T00:10:20.268Z,11.85
2023-05-01T00:13:24.226Z,8.98
2023-05-01T00:16:25.948Z,7.43
2023-05-01T00:19:27.702Z,6.18
2023-05-01T00:22:29.733Z,4.03
2023-05-01T00:25:31.581Z,4.55
2023-05-01T00:28:33.367Z,6.32
2023-05-01T00:31:35.283Z,5.03
2023-05-01T00:34:37.054Z,9.55
2023-05-01T00:37:39.399Z,8.60
2023-05-01T00:40:45.203Z,5.75
2023-05-01T00:43:47.120Z,6.28
2023-05-01T00:46:49.170Z,7.22
2023-05-01T00:49:52.911Z,5.18
2023-05-01T00:52:55.665Z,7.45
2023-05-01T00:55:58.577Z,6.32
2023-05-01T00:59:00.698Z,5.63
2023-05-01T01:02:03.015Z,7.15
2023-05-01T01:05:05.292Z,9.13
2023-05-01T01:08:46.309Z,7.82
2023-05-01T01:12:24.870Z,6.13
2023-05-01T01:15:52.646Z,10.73
2023-05-01T01:19:35.268Z,6.80
2023-05-01T01:22:41.413Z,8.23
2023-05-01T01:26:18.459Z,6.50
2023-05-01T01:29:44.750Z,8.73
2023-05-01T01:33:24.109Z,7.03
2023-05-01T01:36:43.274Z,10.65
2023-05-01T01:40:05.607Z,5.43
2023-05-01T01:43:10.855Z,9.18
2023-05-01T01:46:12.967Z,8.13
2023-05-01T01:49:21.043Z,6.25
2023-05-01T01:52:25.943Z,7.80
2023-05-01T01:55:31.028Z,8.70
2023-05-01T01:58:36.764Z,8.75
2023-05-01T02:01:40.855Z,7.78
2023-05-01T02:04:44.293Z,9.55
2023-05-01T02:07:48.820Z,8.98
2023-05-01T02:10:52.128Z,6.80
2023-05-01T02:13:56.422Z,7.55
2023-05-01T02:16:59.322Z,8.73
2023-05-01T02:20:05.547Z,8.77
2023-05-01T02:23:08.112Z,8.25
2023-05-01T02:26:17.050Z,10.27
2023-05-01T02:29:19.007Z,10.02
2023-05-01T02:32:20.972Z,7.68
2023-05-01T02:35:24.194Z,7.82
2023-05-01T02:38:25.908Z,8.13
2023-05-01T02:41:29.449Z,7.95
2023-05-01T02:44:42.238Z,10.57
2023-05-01T02:47:48.549Z,8.27
2023-05-01T02:50:51.798Z,9.52
2023-05-01T02:53:55.372Z,7.72
2023-05-01T02:56:59.800Z,8.00
2023-05-01T03:00:01.695Z,7.93
2023-05-01T03:03:03.581Z,9.77
2023-05-01T03:06:05.759Z,9.52
2023-05-01T03:09:08.223Z,9.93
2023-05-01T03:12:11.738Z,12.35
2023-05-01T03:15:13.763Z,12.63
2023-05-01T03:18:15.521Z,8.88
2023-05-01T03:21:17.454Z,7.57
2023-05-01T03:24:19.293Z,9.20
2023-05-01T03:27:21.282Z,7.85
2023-05-01T03:30:23.259Z,10.32
2023-05-01T03:33:27.927Z,11.57
2023-05-01T03:36:29.672Z,9.73
2023-05-01T03:39:31.630Z,7.35
2023-05-01T03:42:52.027Z,7.60
2023-05-01T03:45:58.293Z,8.98
2023-05-01T03:49:00.822Z,8.23
2023-05-01T03:52:06.458Z,7.05
2023-05-01T03:55:08.991Z,6.25
2023-05-01T03:58:15.672Z,9.60
2023-05-01T04:01:17.775Z,10.40
2023-05-01T04:04:21.991Z,8.40
2023-05-01T04:07:30.501Z,8.18
2023-05-01T04:10:32.420Z,8.30
2023-05-01T04:13:38.773Z,7.38
2023-05-01T04:16:42.018Z,8.05
2023-05-01T04:19:48.133Z,10.93
2023-05-01T04:22:50.028Z,8.07
2023-05-01T04:25:52.441Z,9.60
2023-05-01T04:28:54.422Z,10.73
2023-05-01T04:32:01.490Z,8.00
2023-05-01T04:35:04.868Z,7.72
2023-05-01T04:38:08.202Z,8.10
2023-05-01T04:41:10.491Z,8.85
2023-05-01T04:44:13.411Z,9.50
2023-05-01T04:47:17.671Z,9.27
2023-05-01T04:50:20.266Z,12.70
2023-05-01T04:53:22.329Z,10.77
2023-05-01T04:56:25.280Z,10.32
2023-05-01T04:59:31.090Z,7.68
2023-05-01T05:02:34.492Z,10.02
2023-05-01T05:05:36.400Z,10.05
2023-05-01T05:08:40.349Z,9.88
2023-05-01T05:11:45.722Z,8.35
2023-05-01T05:14:55.433Z,9.40
2023-05-01T05:17:57.504Z,10.98
2023-05-01T05:21:04.778Z,12.45
2023-05-01T05:24:07.139Z,10.48
2023-05-01T05:27:09.101Z,10.10
2023-05-01T05:30:11.409Z,8.48
2023-05-01T05:33:14.063Z,9.43
2023-05-01T05:36:16.118Z,11.20
2023-05-01T05:39:23.991Z,10.73
2023-05-01T05:42:25.897Z,10.07
2023-05-01T05:45:28.086Z,7.82
2023-05-01T05:48:31.847Z,8.80
2023-05-01T05:51:34.024Z,9.40
2023-05-01T05:54:36.948Z,9.32
2023-05-01T05:57:39.056Z,6.60
2023-05-01T06:00:42.177Z,11.00
2023-05-01T06:03:44.911Z,9.25
2023-05-01T06:06:50.144Z,11.32
2023-05-01T06:09:52.148Z,9.77
2023-05-01T06:13:01.326Z,10.00
2023-05-01T06:16:17.957Z,6.65
2023-05-01T06:19:19.869Z,7.22
2023-05-01T06:22:26.310Z,10.23
2023-05-01T06:25:39.408Z,10.15
2023-05-01T06:28:41.547Z,8.02
2023-05-01T06:31:43.671Z,9.90
2023-05-01T06:34:45.964Z,7.32
2023-05-01T06:37:50.679Z,7.18
2023-05-01T06:40:52.780Z,7.70
2023-05-01T06:43:59.958Z,7.68
2023-05-01T06:47:02.085Z,9.13
2023-05-01T06:50:05.669Z,8.95
2023-05-01T06:53:08.373Z,7.05
2023-05-01T06:56:11.012Z,7.95
2023-05-01T06:59:15.393Z,6.45
2023-05-01T07:02:17.270Z,6.43
2023-05-01T07:05:19.498Z,6.75
2023-05-01T07:08:21.612Z,6.68
2023-05-01T07:11:23.948Z,4.40
2023-05-01T07:14:25.773Z,9.20
2023-05-01T07:17:29.300Z,6.07
2023-05-01T07:20:31.390Z,7.00
2023-05-01T07:23:33.235Z,7.72
2023-05-01T07:26:35.822Z,6.47
2023-05-01T07:29:44.584Z,6.40
2023-05-01T07:32:50.670Z,8.43
2023-05-01T07:35:53.619Z,7.10
2023-05-01T07:38:56.627Z,7.13
2023-05-01T07:41:59.073Z,8.32
2023-05-01T07:45:01.082Z,5.40
2023-05-01T07:48:05.104Z,7.78
2023-05-01T07:51:07.280Z,7.50
2023-05-01T07:54:11.543Z,6.90
2023-05-01T07:57:13.644Z,8.38
2023-05-01T08:00:16.186Z,6.97
2023-05-01T08:03:18.307Z,6.90
2023-05-01T08:06:20.352Z,6.78
2023-05-01T08:09:22.169Z,6.97
2023-05-01T08:12:24.191Z,5.53
2023-05-01T08:15:26.229Z,5.72
2023-05-01T08:18:28.001Z,4.95
2023-05-01T08:21:29.853Z,6.47
2023-05-01T08:24:31.924Z,7.25
2023-05-01T08:27:34.070Z,4.72
2023-05-01T08:30:35.955Z,6.25
2023-05-01T08:33:37.731Z,4.50
2023-05-01T08:36:39.649Z,7.20
2023-05-01T08:39:41.766Z,5.32
2023-05-01T08:42:44.157Z,6.47
2023-05-01T08:45:48.006Z,6.10
2023-05-01T08:48:51.866Z,7.13
2023-05-01T08:51:57.220Z,7.13
2023-05-01T08:55:01.571Z,4.78
2023-05-01T08:58:05.455Z,9.30
2023-05-01T09:01:16.181Z,6.40
2023-05-01T09:07:21.667Z,4.68
2023-05-01T09:10:27.892Z,5.25
2023-05-01T09:13:31.182Z,7.57
2023-05-01T09:16:34.060Z,3.92
2023-05-01T09:19:38.053Z,4.97
2023-05-01T09:22:44.316Z,5.82
2023-05-01T09:25:47.307Z,8.32
2023-05-01T09:28:59.054Z,6.10
2023-05-01T09:32:22.947Z,5.00
2023-05-01T09:35:26.483Z,6.10
2023-05-01T09:38:35.611Z,7.50
2023-05-01T09:41:52.559Z,5.43
2023-05-01T09:44:57.923Z,6.32
2023-05-01T09:48:18.638Z,5.55
2023-05-01T09:51:23.222Z,8.15
2023-05-01T09:54:27.251Z,6.70
2023-05-01T09:57:38.592Z,5.38
2023-05-01T10:00:52.752Z,7.63
2023-05-01T10:03:57.426Z,7.38
2023-05-01T10:07:13.013Z,7.40
2023-05-01T10:10:22.475Z,7.82
2023-05-01T10:13:24.120Z,5.55
2023-05-01T10:16:32.211Z,6.50
2023-05-01T10:19:33.935Z,7.78
2023-05-01T10:22:35.983Z,7.15
2023-05-01T10:25:39.058Z,5.90
2023-05-01T10:28:41.864Z,7.28
2023-05-01T10:31:43.545Z,6.38
2023-05-01T10:34:56.366Z,8.23
2023-05-01T10:38:04.877Z,5.85
2023-05-01T10:41:06.896Z,6.70
2023-05-01T10:44:24.348Z,4.57
2023-05-01T10:47:28.759Z,6.53
2023-05-01T10:50:30.745Z,4.55
2023-05-01T10:53:32.413Z,6.03
2023-05-01T10:56:33.956Z,8.07
2023-05-01T11:00:01.327Z,5.40
2023-05-01T11:03:36.667Z,5.15
2023-05-01T11:06:38.535Z,4.78
2023-05-01T11:09:59.153Z,3.65
2023-05-01T11:13:00.844Z,3.42
2023-05-01T11:16:38.139Z,3.47
2023-05-01T11:19:40.010Z,7.70
2023-05-01T11:22:51.817Z,5.13
2023-05-01T11:26:02.254Z,3.72
2023-05-01T11:29:06.160Z,7.47
2023-05-01T11:32:08.773Z,3.90
2023-05-01T11:35:23.672Z,4.80
2023-05-01T11:38:25.550Z,3.90
2023-05-01T11:41:29.669Z,3.83
2023-05-01T11:44:31.456Z,6.20
2023-05-01T11:47:33.356Z,5.03
2023-05-01T11:50:41.336Z,5.60
2023-05-01T11:53:43.239Z,4.20
2023-05-01T11:56:44.958Z,5.85
2023-05-01T11:59:48.254Z,5.80
2023-05-01T12:03:02.654Z,7.05
2023-05-01T12:06:04.772Z,2.97
2023-05-01T12:09:10.907Z,4.13
2023-05-01T12:12:13.249Z,3.05
2023-05-01T12:15:15.116Z,4.43
2023-05-01T12:18:18.617Z,2.10
2023-05-01T12:21:20.584Z,2.85
2023-05-01T12:24:22.473Z,4.50
2023-05-01T12:27:24.197Z,3.33
2023-05-01T12:30:27.240Z,4.88
2023-05-01T12:33:28.897Z,3.42
2023-05-01T12:36:34.836Z,3.63
2023-05-01T12:39:39.200Z,2.05
2023-05-01T12:42:43.499Z,2.95
2023-05-01T12:45:45.417Z,2.72
2023-05-01T12:48:49.210Z,4.80
2023-05-01T12:51:52.796Z,16.83
2023-05-01T12:55:09.142Z,7.95
2023-05-01T12:58:11.065Z,3.80
2023-05-01T13:01:13.010Z,6.15
2023-05-01T13:04:22.187Z,2.35
2023-05-01T13:07:24.169Z,1.92
2023-05-01T13:10:32.831Z,5.55
2023-05-01T13:13:36.053Z,9.00
2023-05-01T13:16:49.394Z,22.23
2023-05-01T13:19:59.871Z,3.17
2023-05-01T13:23:10.721Z,4.78
2023-05-01T13:26:13.519Z,3.55
2023-05-01T13:29:15.803Z,2.13
2023-05-01T13:32:17.849Z,3.45
2023-05-01T13:35:24.876Z,1.65
2023-05-01T13:38:27.044Z,2.10
2023-05-01T13:41:30.527Z,1.60
2023-05-01T13:44:32.347Z,2.78
2023-05-01T13:47:37.324Z,3.00
2023-05-01T13:50:42.258Z,1.73
2023-05-01T13:53:43.980Z,3.53
2023-05-01T13:56:46.511Z,6.75
2023-05-01T13:59:48.943Z,41.10
2023-05-01T14:02:53.566Z,41.58
2023-05-01T14:05:55.654Z,12.90
2023-05-01T14:09:00.143Z,5.55
2023-05-01T14:12:02.319Z,11.90
2023-05-01T14:15:05.191Z,31.63
2023-05-01T14:18:07.454Z,9.00
2023-05-01T14:21:11.350Z,7.60
2023-05-01T14:24:16.029Z,34.33
2023-05-01T14:27:22.407Z,3.20
2023-05-01T14:30:51.479Z,4.50
2023-05-01T14:33:59.584Z,9.70
2023-05-01T14:37:01.569Z,15.25
2023-05-01T14:40:04.203Z,5.80
2023-05-01T14:43:06.004Z,2.03
2023-05-01T14:46:07.879Z,1.75
2023-05-01T14:49:11.767Z,1.60
2023-05-01T14:52:19.565Z,1.42
2023-05-01T14:55:29.517Z,3.22
2023-05-01T14:58:31.451Z,1.50
2023-05-01T15:01:33.400Z,1.85
2023-05-01T15:04:35.366Z,2.38
2023-05-01T15:07:37.784Z,1.52
2023-05-01T15:10:39.534Z,1.42
2023-05-01T15:13:42.737Z,2.10
2023-05-01T15:16:44.618Z,2.60
2023-05-01T15:19:46.374Z,1.90
2023-05-01T15:22:48.022Z,1.17
2023-05-01T15:25:50.955Z,1.13
2023-05-01T15:28:53.312Z,1.10
2023-05-01T15:32:08.255Z,1.95
2023-05-01T15:35:13.493Z,1.20
2023-05-01T15:38:15.666Z,1.67
2023-05-01T15:41:18.996Z,1.40
2023-05-01T15:44:21.392Z,2.15
2023-05-01T15:47:23.121Z,1.52
2023-05-01T15:50:24.854Z,1.63
2023-05-01T15:53:26.473Z,1.35
2023-05-01T15:56:28.601Z,1.55
2023-05-01T15:59:30.862Z,1.73
2023-05-01T16:02:33.045Z,1.15
2023-05-01T16:05:36.887Z,1.20
2023-05-01T16:08:39.756Z,1.25
2023-05-01T16:11:41.520Z,0.70
2023-05-01T16:14:43.368Z,0.90
2023-05-01T16:17:46.899Z,2.72
2023-05-01T16:20:48.831Z,1.48
2023-05-01T16:23:53.178Z,2.28
2023-05-01T16:26:54.972Z,0.98
2023-05-01T16:29:56.924Z,0.90
2023-05-01T16:32:58.789Z,0.93
2023-05-01T16:36:03.922Z,1.00
2023-05-01T16:39:05.679Z,1.80
2023-05-01T16:42:11.539Z,3.38
2023-05-01T16:45:13.213Z,1.77
2023-05-01T16:48:20.805Z,1.77
2023-05-01T16:51:23.465Z,1.15
2023-05-01T16:54:32.139Z,1.40
2023-05-01T16:57:34.028Z,1.73
2023-05-01T17:00:36.051Z,3.58
2023-05-01T17:03:38.278Z,2.90
2023-05-01T17:06:39.907Z,9.68
2023-05-01T17:09:41.792Z,2.83
2023-05-01T17:12:44.564Z,1.80
2023-05-01T17:15:48.457Z,1.23
2023-05-01T17:18:50.301Z,2.70
2023-05-01T17:21:51.922Z,2.47
2023-05-01T17:24:53.686Z,1.58
2023-05-01T17:27:55.748Z,1.80
2023-05-01T17:31:05.473Z,2.00
2023-05-01T17:34:07.343Z,2.88
2023-05-01T17:37:11.521Z,2.28
2023-05-01T17:40:15.859Z,1.95
2023-05-01T17:43:20.780Z,4.05
2023-05-01T17:46:25.333Z,29.38
2023-05-01T17:49:29.770Z,14.80
2023-05-01T17:52:36.622Z,11.50
2023-05-01T17:55:40.068Z,61.40
2023-05-01T17:58:42.598Z,62.97
2023-05-01T18:01:45.033Z,29.52
2023-05-01T18:04:50.696Z,9.05
2023-05-01T18:07:52.993Z,8.68
2023-05-01T18:10:54.903Z,2.53
2023-05-01T18:13:56.934Z,5.93
2023-05-01T18:16:58.903Z,1.48
2023-05-01T18:20:01.045Z,1.10
2023-05-01T18:23:03.133Z,2.25
2023-05-01T18:26:05.131Z,2.38
2023-05-01T18:29:07.734Z,1.73
2023-05-01T18:32:12.834Z,1.70
2023-05-01T18:35:19.004Z,2.63
2023-05-01T18:38:20.922Z,1.60
2023-05-01T18:41:22.862Z,2.55
2023-05-01T18:44:24.536Z,2.95
2023-05-01T18:47:27.498Z,2.65
2023-05-01T18:50:29.470Z,2.53
2023-05-01T18:53:31.267Z,1.83
2023-05-01T18:56:33.421Z,1.67
2023-05-01T18:59:35.203Z,3.08
2023-05-01T19:02:37.167Z,1.73
2023-05-01T19:05:41.206Z,2.33
2023-05-01T19:08:42.935Z,4.07
2023-05-01T19:11:44.881Z,4.68
2023-05-01T19:14:47.906Z,2.90
2023-05-01T19:17:50.017Z,2.55
2023-05-01T19:20:51.618Z,2.38
2023-05-01T19:23:53.571Z,3.03
2023-05-01T19:26:55.846Z,3.08
2023-05-01T19:30:00.901Z,3.00
2023-05-01T19:33:04.095Z,2.15
2023-05-01T19:36:05.998Z,2.58
2023-05-01T19:39:07.751Z,1.98
2023-05-01T19:42:12.201Z,3.58
2023-05-01T19:45:15.110Z,2.17
2023-05-01T19:48:18.821Z,3.22
2023-05-01T19:51:20.799Z,2.40
2023-05-01T19:54:24.867Z,3.50
2023-05-01T19:57:26.652Z,2.28
2023-05-01T20:00:28.358Z,3.13
2023-05-01T20:03:30.072Z,2.38
2023-05-01T20:06:32.326Z,2.40
2023-05-01T20:09:33.985Z,3.42
2023-05-01T20:12:35.835Z,3.78
2023-05-01T20:15:38.756Z,2.53
2023-05-01T20:18:40.563Z,3.70
2023-05-01T20:21:42.769Z,4.45
2023-05-01T20:24:44.459Z,4.22
2023-05-01T20:27:46.407Z,4.22
2023-05-01T20:30:49.052Z,4.90
2023-05-01T20:33:50.598Z,8.80
2023-05-01T20:36:52.354Z,4.82
2023-05-01T20:39:54.044Z,5.30
2023-05-01T20:42:56.208Z,3.85
2023-05-01T20:45:59.636Z,3.13
2023-05-01T20:49:01.669Z,6.72
2023-05-01T20:52:03.473Z,5.82
2023-05-01T20:55:06.128Z,5.63
2023-05-01T20:58:07.675Z,5.47
2023-05-01T21:01:09.794Z,4.88
2023-05-01T21:04:11.613Z,5.32
2023-05-01T21:07:13.409Z,3.30
2023-05-01T21:10:16.522Z,7.25
2023-05-01T21:13:20.904Z,7.60
2023-05-01T21:16:22.584Z,5.97
2023-05-01T21:19:24.555Z,8.48
2023-05-01T21:22:26.897Z,8.07
2023-05-01T21:25:31.684Z,10.88
2023-05-01T21:28:33.473Z,13.30
2023-05-01T21:31:37.004Z,5.85
2023-05-01T21:34:39.033Z,7.88
2023-05-01T21:37:43.766Z,5.38
2023-05-01T21:40:46.223Z,6.97
2023-05-01T21:43:47.965Z,7.97
2023-05-01T21:46:53.307Z,8.48
2023-05-01T21:50:01.212Z,5.18
2023-05-01T21:53:03.850Z,4.47
2023-05-01T21:56:06.277Z,8.95
2023-05-01T21:59:08.407Z,6.70
2023-05-01T22:02:14.967Z,7.47
2023-05-01T22:05:20.051Z,7.38
2023-05-01T22:08:22.960Z,8.02
2023-05-01T22:11:26.146Z,4.93
2023-05-01T22:14:46.169Z,8.85
2023-05-01T22:17:49.022Z,9.80
2023-05-01T22:20:50.925Z,8.35
2023-05-01T22:23:53.620Z,7.63
2023-05-01T22:26:55.547Z,8.70
2023-05-01T22:29:57.671Z,8.48
2023-05-01T22:32:59.491Z,7.22
2023-05-01T22:36:01.379Z,8.77
2023-05-01T22:39:03.822Z,6.93
2023-05-01T22:42:05.749Z,8.98
2023-05-01T22:45:07.576Z,6.63
2023-05-01T22:48:09.584Z,8.63
2023-05-01T22:51:11.397Z,7.60
2023-05-01T22:54:13.103Z,7.32
2023-05-01T22:57:14.738Z,8.63
2023-05-01T23:00:17.053Z,7.85
2023-05-01T23:03:18.850Z,8.15
2023-05-01T23:06:20.895Z,9.60
2023-05-01T23:09:22.675Z,8.20
2023-05-01T23:12:25.888Z,6.43
2023-05-01T23:15:27.586Z,8.50
2023-05-01T23:18:39.643Z,9.45
2023-05-01T23:21:41.230Z,7.88
2023-05-01T23:24:49.304Z,12.05
2023-05-01T23:27:53.785Z,9.35
2023-05-01T23:31:00.311Z,8.93
2023-05-01T23:34:02.894Z,10.35
2023-05-01T23:37:04.466Z,7.50
2023-05-01T23:40:07.774Z,8.23
2023-05-01T23:43:10.907Z,6.78
2023-05-01T23:46:12.969Z,8.63
2023-05-01T23:49:14.684Z,9.15
2023-05-01T23:52:16.483Z,8.10
2023-05-01T23:55:18.331Z,6.85
2023-05-01T23:58:20.216Z,9.00
